Time;durP1;ratioP1;P1;durP2;ratioP2;P2;SDS_P1;SDS_P2;PMS_P1;PMS_P2;Temp;Humidity;BMP_temperature;BMP_pressure;BME280_temperature;BME280_humidity;BME280_pressure;Samples;Min_cycle;Max_cycle;Signal;HPM_P1;HPM_P2
2022/05/26 00:01:30;;;;;;;5.47;3.28;;;;;;;15.75;83.13;101605.75;5045178;28;20037;-44
2022/05/26 00:04:05;;;;;;;6.80;3.53;;;;;;;15.76;83.53;101610.13;5035745;28;20049;-47
2022/05/26 00:06:53;;;;;;;9.05;4.55;;;;;;;15.73;83.66;101602.44;5036040;28;20043;-43
2022/05/26 00:09:42;;;;;;;6.03;3.42;;;;;;;15.72;84.12;101606.28;5020870;28;20389;-44
2022/05/26 00:12:32;;;;;;;5.68;3.28;;;;;;;15.70;84.45;101608.50;5040119;28;20100;-45
2022/05/26 00:15:19;;;;;;;9.05;3.63;;;;;;;15.68;84.77;101610.69;5034724;28;20496;-49
2022/05/26 00:18:07;;;;;;;6.57;3.28;;;;;;;15.70;85.00;101613.16;5036125;28;20049;-47
2022/05/26 00:20:54;;;;;;;7.65;3.28;;;;;;;15.69;84.68;101606.84;5036572;28;20045;-47
2022/05/26 00:23:42;;;;;;;6.55;3.30;;;;;;;15.69;84.81;101615.06;5049795;28;20404;-49
2022/05/26 00:26:30;;;;;;;7.45;3.35;;;;;;;15.68;84.91;101613.44;5031108;28;20488;-48
2022/05/26 00:29:17;;;;;;;6.72;3.53;;;;;;;15.63;84.85;101613.44;5035660;28;20068;-48
2022/05/26 00:32:06;;;;;;;5.95;2.90;;;;;;;15.66;84.91;101610.16;5040710;28;20443;-50
2022/05/26 00:34:53;;;;;;;7.18;3.55;;;;;;;15.64;84.79;101620.59;5035420;28;20499;-48
2022/05/26 00:37:44;;;;;;;7.28;3.20;;;;;;;15.63;84.90;101615.38;5020407;28;20042;-46
2022/05/26 00:40:13;;;;;;;7.88;3.47;;;;;;;15.61;85.18;101626.66;5033680;28;20041;-51
2022/05/26 00:42:41;;;;;;;8.05;3.45;;;;;;;15.61;85.06;101625.81;5036219;28;20044;-46
2022/05/26 00:45:09;;;;;;;8.52;3.40;;;;;;;15.60;84.73;101619.50;5035192;28;20038;-48
2022/05/26 00:47:43;;;;;;;6.43;3.42;;;;;;;15.63;84.62;101621.69;5035159;28;20038;-47
2022/05/26 00:50:22;;;;;;;7.07;3.25;;;;;;;15.63;84.65;101618.94;5031677;28;20051;-48
2022/05/26 00:52:53;;;;;;;6.88;3.35;;;;;;;15.63;84.44;101618.13;5034024;28;20132;-48
2022/05/26 00:55:28;;;;;;;9.73;3.45;;;;;;;15.61;84.28;101615.69;5035412;28;20045;-45
2022/05/26 00:58:09;;;;;;;7.15;3.40;;;;;;;15.60;84.44;101616.75;5018073;28;20526;-46
2022/05/26 01:00:43;;;;;;;7.68;3.25;;;;;;;15.61;84.60;101621.16;5032177;28;20048;-48
2022/05/26 01:03:32;;;;;;;6.45;3.15;;;;;;;15.58;84.76;101627.22;5035527;28;20053;-47
2022/05/26 01:06:24;;;;;;;6.57;3.55;;;;;;;15.58;84.37;101616.22;5032039;28;20045;-50
2022/05/26 01:09:12;;;;;;;10.25;3.78;;;;;;;15.59;84.47;101619.81;5044198;28;20499;-47
2022/05/26 01:12:00;;;;;;;9.63;3.70;;;;;;;15.59;84.42;101623.38;5052085;28;20052;-48
2022/05/26 01:14:53;;;;;;;8.85;3.70;;;;;;;15.57;84.78;101620.09;5053012;28;20395;-43
2022/05/26 01:18:06;;;;;;;11.02;3.65;;;;;;;15.58;84.32;101627.22;5037253;28;20056;-45
2022/05/26 01:21:03;;;;;;;6.72;3.47;;;;;;;15.57;84.65;101630.25;5036301;28;20041;-43
2022/05/26 01:24:09;;;;;;;8.98;4.05;;;;;;;15.55;84.79;101628.59;5051297;28;20052;-45
2022/05/26 01:27:05;;;;;;;10.00;4.20;;;;;;;15.54;84.92;101626.16;5053970;28;20067;-43
2022/05/26 01:30:20;;;;;;;9.43;4.18;;;;;;;15.54;84.49;101637.94;5049257;28;20053;-47
2022/05/26 01:33:40;;;;;;;9.70;3.90;;;;;;;15.56;84.67;101632.16;5032264;28;20056;-46
2022/05/26 01:36:42;;;;;;;7.63;3.90;;;;;;;15.59;84.54;101631.63;5034255;28;20049;-44
2022/05/26 01:39:41;;;;;;;9.32;4.10;;;;;;;15.61;84.63;101632.16;5030217;28;20442;-47
2022/05/26 01:42:38;;;;;;;11.40;4.47;;;;;;;15.61;84.95;101636.81;5038609;28;20056;-48
2022/05/26 01:45:21;;;;;;;12.25;4.82;;;;;;;15.60;84.95;101636.00;5017900;28;20052;-43
2022/05/26 01:48:06;;;;;;;11.52;4.50;;;;;;;15.59;84.67;101639.84;5032391;28;20124;-46
2022/05/26 01:50:59;;;;;;;9.68;4.22;;;;;;;15.58;85.65;101642.88;5032891;28;20127;-46
2022/05/26 01:53:45;;;;;;;10.02;4.40;;;;;;;15.54;85.40;101646.19;5032659;28;20041;-46
2022/05/26 01:56:55;;;;;;;12.02;4.72;;;;;;;15.54;85.13;101656.38;5030471;28;20492;-48
2022/05/26 01:59:48;;;;;;;11.00;4.25;;;;;;;15.57;85.00;101654.97;5033225;28;20065;-47
2022/05/26 02:02:24;;;;;;;10.02;4.22;;;;;;;15.56;85.58;101662.38;5053212;28;20040;-46
2022/05/26 02:05:13;;;;;;;12.98;4.93;;;;;;;15.52;85.45;101659.38;5032366;28;20509;-48
2022/05/26 02:07:46;;;;;;;11.18;4.45;;;;;;;15.52;85.62;101655.81;5032230;28;20531;-47
2022/05/26 02:10:21;;;;;;;12.52;4.88;;;;;;;15.51;85.82;101656.91;5051322;28;20048;-46
2022/05/26 02:13:12;;;;;;;13.38;5.20;;;;;;;15.47;86.13;101662.16;5049899;28;20048;-47
2022/05/26 02:15:47;;;;;;;9.55;4.22;;;;;;;15.47;86.40;101666.81;5052252;28;20041;-47
2022/05/26 02:18:39;;;;;;;16.20;6.18;;;;;;;15.48;86.03;101665.72;5046897;28;20049;-46
2022/05/26 02:21:49;;;;;;;16.05;4.80;;;;;;;15.46;86.09;101660.50;5033342;28;20041;-47
2022/05/26 02:24:51;;;;;;;13.23;5.13;;;;;;;15.46;86.40;101665.97;5031833;28;20416;-46
2022/05/26 02:27:39;;;;;;;12.75;4.65;;;;;;;15.48;86.41;101669.28;5037698;28;20048;-47
2022/05/26 02:30:30;;;;;;;14.30;5.43;;;;;;;15.47;86.72;101677.81;5050258;28;20053;-45
2022/05/26 02:33:18;;;;;;;15.05;5.28;;;;;;;15.45;86.45;101675.34;5052599;28;20120;-46
2022/05/26 02:35:58;;;;;;;13.85;5.40;;;;;;;15.44;86.83;101670.97;5052473;28;20033;-51
2022/05/26 02:38:46;;;;;;;17.38;5.65;;;;;;;15.43;86.98;101684.97;5050034;28;20488;-47
2022/05/26 02:41:34;;;;;;;14.25;5.18;;;;;;;15.45;86.60;101682.75;5043872;28;20056;-47
2022/05/26 02:44:24;;;;;;;15.98;5.85;;;;;;;15.44;87.11;101676.44;5053247;28;20057;-47
2022/05/26 02:47:15;;;;;;;13.77;5.50;;;;;;;15.45;87.52;101682.75;5047845;28;20038;-46
2022/05/26 02:50:08;;;;;;;17.30;5.45;;;;;;;15.44;87.17;101675.59;5040338;28;20496;-46
2022/05/26 02:53:17;;;;;;;14.27;5.85;;;;;;;15.43;87.03;101683.03;5044267;28;20045;-49
2022/05/26 02:56:04;;;;;;;13.60;5.18;;;;;;;15.42;87.02;101680.59;5053056;28;20057;-46
2022/05/26 02:59:15;;;;;;;17.05;5.70;;;;;;;15.43;86.94;101682.22;5051373;28;20049;-48
2022/05/26 03:02:32;;;;;;;13.75;5.50;;;;;;;15.43;86.90;101691.28;5034636;28;20119;-45
2022/05/26 03:05:34;;;;;;;15.70;5.95;;;;;;;15.43;87.66;101691.28;5029716;28;20054;-46
2022/05/26 03:08:24;;;;;;;15.90;5.95;;;;;;;15.39;87.48;101684.69;5033412;28;20041;-49
2022/05/26 03:11:24;;;;;;;13.70;5.47;;;;;;;15.39;87.39;101683.88;5030746;28;20530;-48
2022/05/26 03:14:11;;;;;;;16.55;5.88;;;;;;;15.37;87.61;101686.06;5032560;28;20054;-48
2022/05/26 03:16:59;;;;;;;17.95;6.07;;;;;;;15.38;87.88;101682.22;5033466;28;20595;-45
2022/05/26 03:19:27;;;;;;;15.60;5.60;;;;;;;15.36;87.77;101685.25;5052521;28;20404;-46
2022/05/26 03:22:15;;;;;;;16.83;6.32;;;;;;;15.37;87.86;101691.56;5042033;28;20044;-49
2022/05/26 03:24:57;;;;;;;15.05;5.80;;;;;;;15.38;88.07;101693.22;5052813;28;20106;-45
2022/05/26 03:27:45;;;;;;;16.77;5.97;;;;;;;15.38;87.83;101698.72;5050894;28;20102;-46
2022/05/26 03:30:32;;;;;;;17.30;6.25;;;;;;;15.37;88.08;101708.03;5052030;28;20045;-48
2022/05/26 03:33:20;;;;;;;14.38;5.22;;;;;;;15.37;87.84;101699.78;5032976;28;20052;-51
2022/05/26 03:42:19;;;;;;;20.58;5.88;;;;;;;15.32;87.80;101712.47;5042043;28;20052;-48
2022/05/26 03:45:08;;;;;;;17.15;5.93;;;;;;;15.31;88.28;101720.97;5032098;28;20046;-48
2022/05/26 03:47:56;;;;;;;16.85;5.95;;;;;;;15.28;88.46;101713.28;5033549;28;20049;-46
2022/05/26 03:50:44;;;;;;;19.30;6.35;;;;;;;15.29;88.60;101723.97;5032378;28;20049;-49
2022/05/26 03:53:12;;;;;;;20.15;6.22;;;;;;;15.28;88.46;101719.59;5034049;28;20056;-49
2022/05/26 03:56:01;;;;;;;17.25;6.55;;;;;;;15.26;88.72;101724.53;5031504;28;20399;-50
2022/05/26 03:58:49;;;;;;;18.90;6.10;;;;;;;15.24;88.81;101732.22;5033117;28;20050;-45
2022/05/26 04:01:36;;;;;;;23.33;6.53;;;;;;;15.23;89.08;101725.09;5033440;28;20046;-47
2022/05/26 04:04:24;;;;;;;16.80;5.63;;;;;;;15.22;88.90;101730.84;5022530;28;20046;-48
2022/05/26 04:07:12;;;;;;;18.70;6.05;;;;;;;15.21;89.05;101741.03;5035490;28;20408;-50
2022/05/26 04:10:01;;;;;;;17.42;5.78;;;;;;;15.19;88.99;101743.22;5036584;28;20045;-47
2022/05/26 04:12:49;;;;;;;20.80;5.82;;;;;;;15.21;88.56;101743.75;5021289;28;20048;-48
2022/05/26 04:15:37;;;;;;;19.10;5.65;;;;;;;15.22;89.07;101742.66;5050532;28;20060;-47
2022/05/26 04:18:25;;;;;;;17.00;5.93;;;;;;;15.25;88.61;101738.53;5044449;28;20045;-50
2022/05/26 04:21:13;;;;;;;17.52;5.78;;;;;;;15.24;88.12;101737.72;5035057;28;20056;-48
2022/05/26 04:24:00;;;;;;;19.63;6.13;;;;;;;15.25;88.50;101744.03;5048141;28;20454;-43
2022/05/26 04:26:48;;;;;;;20.25;6.00;;;;;;;15.23;88.57;101752.56;5054171;28;20045;-48
2022/05/26 04:29:36;;;;;;;18.75;5.57;;;;;;;15.25;88.45;101749.50;5055334;28;20541;-48
2022/05/26 04:32:24;;;;;;;23.88;6.05;;;;;;;15.26;88.31;101754.75;5046203;28;20503;-52
2022/05/26 04:35:12;;;;;;;17.75;5.72;;;;;;;15.26;88.56;101754.75;5035448;28;20427;-51
2022/05/26 04:38:00;;;;;;;15.27;5.60;;;;;;;15.28;88.27;101751.72;5035407;28;20050;-49
2022/05/26 04:40:57;;;;;;;17.80;5.70;;;;;;;15.27;87.88;101753.66;5035531;28;20053;-48
2022/05/26 04:43:44;;;;;;;20.85;5.65;;;;;;;15.29;87.88;101762.41;5036384;28;20412;-50
2022/05/26 04:46:32;;;;;;;15.77;5.35;;;;;;;15.28;87.88;101757.22;5036161;28;20044;-46
2022/05/26 04:49:20;;;;;;;22.75;6.55;;;;;;;15.26;87.60;101765.72;5034911;28;20057;-48
2022/05/26 04:52:13;;;;;;;18.85;5.57;;;;;;;15.24;88.00;101773.41;5035691;28;20054;-45
2022/05/26 04:55:01;;;;;;;20.92;5.93;;;;;;;15.24;88.12;101776.16;5034640;28;20045;-46
2022/05/26 04:57:52;;;;;;;15.35;5.30;;;;;;;15.29;87.87;101783.56;5034537;28;20057;-45
2022/05/26 05:00:40;;;;;;;19.02;5.50;;;;;;;15.28;88.22;101788.25;5034771;28;20128;-46
2022/05/26 05:03:27;;;;;;;16.50;5.78;;;;;;;15.28;88.19;101799.22;5033422;28;20060;-47
2022/05/26 05:06:16;;;;;;;22.52;5.95;;;;;;;15.27;88.56;101797.59;5033694;28;20048;-51
2022/05/26 05:09:04;;;;;;;24.45;7.18;;;;;;;15.23;89.07;101799.22;5034072;28;20507;-47
2022/05/26 05:11:52;;;;;;;22.98;6.32;;;;;;;15.19;88.83;101809.09;5033099;28;20050;-49
2022/05/26 05:14:45;;;;;;;16.58;5.53;;;;;;;15.24;88.72;101813.78;5054161;28;20045;-45
2022/05/26 05:17:33;;;;;;;26.48;7.03;;;;;;;15.22;89.15;101813.22;5052178;28;20562;-48
2022/05/26 05:20:20;;;;;;;20.00;6.18;;;;;;;15.20;89.50;101818.16;5053988;28;20052;-48
2022/05/26 05:23:12;;;;;;;25.60;6.60;;;;;;;15.12;89.80;101809.38;5049709;28;20052;-48
2022/05/26 05:26:00;;;;;;;20.23;6.30;;;;;;;15.16;89.92;101820.66;5044509;28;20049;-49
2022/05/26 05:28:52;;;;;;;24.95;6.63;;;;;;;15.23;89.33;101817.63;5033301;28;20045;-48
2022/05/26 05:31:52;;;;;;;23.90;6.18;;;;;;;15.26;89.35;101825.31;5034586;28;20042;-51
2022/05/26 05:34:44;;;;;;;21.15;5.85;;;;;;;15.23;89.62;101823.13;5033985;28;20049;-49
2022/05/26 05:37:33;;;;;;;24.67;6.72;;;;;;;15.27;89.12;101829.69;5031533;28;20052;-49
2022/05/26 05:40:20;;;;;;;23.38;5.72;;;;;;;15.32;89.12;101833.28;5033452;28;20047;-50
2022/05/26 05:43:08;;;;;;;22.63;6.22;;;;;;;15.31;89.14;101830.78;5041508;28;20041;-51
2022/05/26 05:45:56;;;;;;;22.10;6.28;;;;;;;15.33;89.33;101829.41;5034715;28;20049;-49
2022/05/26 05:48:43;;;;;;;16.33;4.07;;;;;;;15.38;87.62;101831.34;5033566;28;20042;-50
2022/05/26 05:51:32;;;;;;;24.15;6.95;;;;;;;15.37;88.99;101835.19;5034454;28;20459;-48
2022/05/26 05:54:20;;;;;;;23.00;6.25;;;;;;;15.31;89.36;101839.03;5033044;28;20049;-50
2022/05/26 05:57:08;;;;;;;24.27;6.95;;;;;;;15.30;89.56;101843.72;5048219;28;20049;-52
2022/05/26 05:59:56;;;;;;;20.58;6.05;;;;;;;15.35;89.47;101848.38;5047901;28;20404;-52
2022/05/26 06:02:43;;;;;;;20.83;6.22;;;;;;;15.40;88.73;101844.81;5037902;28;20060;-48
2022/05/26 06:05:32;;;;;;;20.33;6.13;;;;;;;15.38;89.56;101855.25;5050292;28;20056;-48
2022/05/26 06:08:19;;;;;;;23.65;6.63;;;;;;;15.39;89.28;101845.88;4337597;28;10000759;-48
2022/05/26 06:11:07;;;;;;;23.98;6.10;;;;;;;15.42;89.47;101853.59;5030643;28;20049;-54
2022/05/26 06:13:54;;;;;;;19.20;6.03;;;;;;;15.41;89.49;101854.69;5033272;28;20053;-50
2022/05/26 06:16:44;;;;;;;24.70;6.90;;;;;;;15.54;88.20;101865.94;5039192;28;20419;-49
2022/05/26 06:19:33;;;;;;;23.20;6.68;;;;;;;15.59;87.68;101858.81;5035652;28;20064;-52
2022/05/26 06:22:22;;;;;;;24.35;6.63;;;;;;;15.58;88.74;101862.63;5047179;28;20053;-51
2022/05/26 06:25:11;;;;;;;27.20;6.38;;;;;;;15.53;89.05;101871.69;5029723;28;20055;-52
2022/05/26 06:31:04;;;;;;;24.38;6.28;;;;;;;15.43;89.36;101872.53;5026350;28;20037;-52
2022/05/26 06:40:17;;;;;;;20.02;5.28;;;;;;;15.54;88.00;101884.34;5031041;28;20424;-51
2022/05/26 06:43:05;;;;;;;20.70;5.90;;;;;;;15.55;88.07;101881.31;5046436;28;20056;-50
2022/05/26 06:45:53;;;;;;;14.52;4.35;;;;;;;15.78;85.03;101887.38;5029541;28;20057;-51
2022/05/26 06:48:40;;;;;;;20.30;5.85;;;;;;;15.75;87.07;101897.00;5027541;28;20056;-49
2022/05/26 06:51:30;;;;;;;17.60;5.90;;;;;;;15.67;87.61;101889.28;5029887;28;20053;-53
2022/05/26 06:54:18;;;;;;;20.92;6.28;;;;;;;15.64;86.97;101898.06;5029382;28;20083;-50
2022/05/26 06:57:06;;;;;;;14.02;4.55;;;;;;;15.68;85.88;101888.19;5049426;28;20060;-50
2022/05/26 06:59:55;;;;;;;21.27;6.35;;;;;;;15.79;85.68;101902.75;5046234;28;20154;-51
2022/05/26 07:02:43;;;;;;;20.80;5.53;;;;;;;15.80;86.29;101909.06;5029595;28;20053;-54
2022/05/26 07:05:33;;;;;;;20.77;6.18;;;;;;;15.73;85.83;101899.22;5036084;28;20045;-50
2022/05/26 07:08:21;;;;;;;21.88;6.05;;;;;;;15.69;85.42;101914.56;5049443;28;20060;-50
2022/05/26 07:11:09;;;;;;;21.30;6.47;;;;;;;15.77;83.97;101911.28;5045999;28;20129;-51
2022/05/26 07:13:57;;;;;;;19.90;6.35;;;;;;;15.74;84.75;101911.84;5029571;28;20111;-50
2022/05/26 07:16:45;;;;;;;20.38;5.88;;;;;;;15.72;83.85;101919.53;5041671;28;20064;-51
2022/05/26 07:19:35;;;;;;;17.20;5.72;;;;;;;15.74;84.51;101914.56;5046112;28;20049;-52
2022/05/26 07:22:23;;;;;;;23.25;6.28;;;;;;;15.86;84.17;101924.47;5022986;28;20053;-50
2022/05/26 07:25:11;;;;;;;21.50;6.15;;;;;;;15.89;83.31;101929.41;5029680;28;20061;-54
2022/05/26 07:27:58;;;;;;;20.35;5.60;;;;;;;15.85;82.95;101934.66;5046495;28;20441;-51
2022/05/26 07:30:46;;;;;;;19.58;5.75;;;;;;;15.98;82.14;101925.81;5047861;28;20041;-50
2022/05/26 07:33:33;;;;;;;23.95;5.50;;;;;;;15.95;82.02;101940.13;5045396;28;20049;-50
2022/05/26 07:42:42;;;;;;;21.73;5.97;;;;;;;15.95;80.57;101942.06;5034225;28;20064;-52
2022/05/26 07:45:30;;;;;;;21.92;5.97;;;;;;;15.95;81.35;101937.38;5047876;28;20052;-52
2022/05/26 07:48:17;;;;;;;17.70;5.30;;;;;;;16.01;80.67;101948.38;5051242;28;20060;-50
2022/05/26 07:51:05;;;;;;;16.45;5.00;;;;;;;16.15;80.22;101932.94;5051958;28;20049;-46
2022/05/26 07:53:53;;;;;;;17.50;5.53;;;;;;;16.17;78.94;101948.06;5049585;28;20059;-51
2022/05/26 07:56:41;;;;;;;19.10;5.82;;;;;;;16.17;79.03;101939.81;5053041;28;20041;-48
2022/05/26 07:59:28;;;;;;;20.63;6.05;;;;;;;16.24;78.96;101935.97;5036234;28;20053;-50
2022/05/26 08:02:17;;;;;;;18.70;5.32;;;;;;;16.33;78.49;101942.50;5053374;28;20052;-50
2022/05/26 08:05:05;;;;;;;21.63;4.88;;;;;;;16.42;78.37;101943.59;5044840;28;20053;-53
2022/05/26 08:07:53;;;;;;;28.75;8.25;;;;;;;16.57;77.71;101951.81;5036183;28;20051;-51
2022/05/26 08:10:41;;;;;;;15.85;4.88;;;;;;;16.52;76.23;101957.31;5029856;28;20045;-49
2022/05/26 08:13:28;;;;;;;15.60;4.53;;;;;;;16.47;76.34;101957.31;5032378;28;20056;-51
2022/05/26 08:16:16;;;;;;;17.15;5.03;;;;;;;16.45;75.68;101955.94;5040747;28;20068;-55
2022/05/26 08:19:05;;;;;;;13.70;4.82;;;;;;;16.39;76.33;101955.16;5051033;28;20119;-55
2022/05/26 08:21:52;;;;;;;11.90;4.10;;;;;;;16.33;76.00;101962.59;5048260;28;20810;-53
2022/05/26 08:24:40;;;;;;;17.08;4.72;;;;;;;16.40;75.79;101954.03;5035891;28;20056;-55
2022/05/26 08:27:28;;;;;;;17.08;5.72;;;;;;;16.52;75.06;101950.97;5051011;28;20049;-49
2022/05/26 08:30:15;;;;;;;28.08;7.90;;;;;;;16.80;75.49;101960.53;5032287;28;20052;-54
2022/05/26 08:33:03;;;;;;;12.20;4.88;;;;;;;16.88;73.15;101962.69;5038891;28;20053;-52
2022/05/26 08:36:00;;;;;;;17.35;5.20;;;;;;;16.82;73.67;101966.59;5047091;28;20673;-50
2022/05/26 08:38:48;;;;;;;17.10;4.75;;;;;;;16.95;71.59;101963.22;5043728;28;20049;-50
2022/05/26 08:41:41;;;;;;;14.27;5.15;;;;;;;16.96;72.39;101969.56;5032031;28;20056;-53
2022/05/26 08:44:31;;;;;;;14.70;4.28;;;;;;;16.94;72.17;101978.09;5031784;28;20049;-53
2022/05/26 08:47:22;;;;;;;14.48;4.72;;;;;;;16.87;73.01;101966.56;5032268;28;20096;-53
2022/05/26 08:50:16;;;;;;;14.70;4.45;;;;;;;16.86;73.16;101981.44;5046723;28;20063;-51
2022/05/26 08:53:16;;;;;;;15.70;4.30;;;;;;;16.80;72.76;101986.13;5049602;28;20045;-50
2022/05/26 08:56:04;;;;;;;15.82;4.63;;;;;;;16.86;73.13;101981.44;5048549;28;20053;-53
2022/05/26 08:59:00;;;;;;;17.40;5.22;;;;;;;16.90;73.57;101982.50;5031384;28;20053;-52
2022/05/26 09:01:48;;;;;;;19.88;4.90;;;;;;;17.04;71.61;101977.22;5031955;28;20061;-52
2022/05/26 09:04:36;;;;;;;13.25;4.38;;;;;;;17.17;72.54;101975.75;5030869;28;20061;-50
2022/05/26 09:13:43;;;;;;;12.90;4.10;;;;;;;17.39;69.64;101981.69;5036332;28;20511;-51
2022/05/26 09:16:42;;;;;;;12.13;4.32;;;;;;;17.33;69.87;101985.59;5041162;28;20057;-54
2022/05/26 09:19:50;;;;;;;12.05;4.15;;;;;;;17.36;70.34;101985.00;5047020;28;20131;-51
2022/05/26 09:22:46;;;;;;;12.48;3.75;;;;;;;17.24;69.24;101992.78;5047225;28;20042;-54
2022/05/26 09:25:42;;;;;;;14.18;4.30;;;;;;;17.27;68.31;101992.25;5034391;28;20049;-53
2022/05/26 09:28:41;;;;;;;13.90;3.97;;;;;;;17.36;69.98;101998.78;5035212;28;20045;-45
2022/05/26 09:31:34;;;;;;;10.80;3.45;;;;;;;17.33;66.26;101998.53;5033343;28;20076;-50
2022/05/26 09:34:34;;;;;;;12.60;3.90;;;;;;;17.25;66.65;102009.06;5027199;28;20041;-50
2022/05/26 09:37:38;;;;;;;13.98;4.07;;;;;;;17.32;67.73;102005.13;5022723;28;20378;-56
2022/05/26 09:40:36;;;;;;;11.25;4.22;;;;;;;17.44;68.15;102005.66;5053726;28;20454;-52
2022/05/26 09:43:26;;;;;;;18.23;5.20;;;;;;;17.52;67.74;102010.53;5041458;28;20088;-53
2022/05/26 09:46:15;;;;;;;12.60;4.07;;;;;;;17.41;66.60;102014.47;5034068;28;20045;-49
2022/05/26 09:49:11;;;;;;;13.43;4.30;;;;;;;17.31;66.96;102026.38;5034934;28;20050;-55
2022/05/26 09:52:20;;;;;;;11.95;3.67;;;;;;;17.34;67.43;102020.31;5033107;28;20068;-45
2022/05/26 09:55:16;;;;;;;11.30;3.33;;;;;;;17.40;66.93;102015.56;5033718;28;20053;-50
2022/05/26 09:58:13;;;;;;;14.75;4.95;;;;;;;17.58;68.38;102019.59;5042537;28;20484;-53
2022/05/26 10:01:06;;;;;;;10.38;3.42;;;;;;;17.64;67.03;102019.28;5039393;28;20056;-49
2022/05/26 10:04:20;;;;;;;15.30;4.45;;;;;;;17.63;66.68;102023.16;5033382;28;20473;-53
2022/05/26 10:07:32;;;;;;;11.68;4.22;;;;;;;17.70;66.33;102028.31;5034552;28;20056;-51
2022/05/26 10:10:36;;;;;;;15.68;3.80;;;;;;;17.78;66.86;102033.25;5033280;28;20500;-51
2022/05/26 10:14:01;;;;;;;12.00;3.40;;;;;;;18.05;65.03;102029.19;5039820;28;20041;-50
2022/05/26 10:17:16;;;;;;;11.70;3.25;;;;;;;17.99;63.60;102030.34;5035571;28;20045;-52
2022/05/26 10:20:13;;;;;;;9.52;3.20;;;;;;;17.87;64.33;102037.06;5053574;28;20049;-50
2022/05/26 10:23:08;;;;;;;14.45;4.07;;;;;;;17.85;64.42;102042.03;5052187;28;20041;-50
2022/05/26 10:26:01;;;;;;;12.30;3.27;;;;;;;17.85;64.42;102038.47;5051679;28;20514;-47
2022/05/26 10:28:55;;;;;;;13.32;4.50;;;;;;;17.96;65.11;102039.19;5030072;28;20296;-49
2022/05/26 10:31:56;;;;;;;14.00;3.88;;;;;;;17.90;63.95;102038.41;5033156;28;20558;-48
2022/05/26 10:34:44;;;;;;;10.73;3.50;;;;;;;17.82;63.17;102037.09;5036411;28;20049;-49
2022/05/26 10:37:48;;;;;;;8.23;2.88;;;;;;;17.83;62.91;102044.25;5029425;28;20053;-48
2022/05/26 10:40:55;;;;;;;11.63;3.00;;;;;;;17.93;61.77;102037.84;5004854;28;20049;-47
2022/05/26 10:44:16;;;;;;;8.77;2.90;;;;;;;17.93;62.10;102042.53;5032347;28;20396;-49
2022/05/26 10:47:21;;;;;;;12.52;2.67;;;;;;;17.87;62.88;102038.97;5026167;28;20049;-50
2022/05/26 10:50:23;;;;;;;10.15;3.08;;;;;;;17.94;64.73;102044.16;5032050;28;20071;-50
2022/05/26 10:53:15;;;;;;;13.20;3.22;;;;;;;18.06;61.65;102044.63;5044501;28;20041;-49
2022/05/26 10:56:12;;;;;;;16.52;3.78;;;;;;;18.16;64.28;102035.44;5032735;28;20052;-48
2022/05/26 10:59:13;;;;;;;10.38;2.70;;;;;;;18.28;61.89;102028.44;5032593;28;20042;-51
2022/05/26 11:02:13;;;;;;;7.95;2.40;;;;;;;18.34;59.39;102031.94;5031033;28;20045;-49
2022/05/26 11:05:03;;;;;;;9.50;2.75;;;;;;;18.36;59.11;102031.66;5031353;28;20536;-46
2022/05/26 11:07:54;;;;;;;8.73;3.15;;;;;;;18.28;59.42;102050.50;5032136;28;20053;-48
2022/05/26 11:10:53;;;;;;;10.55;3.08;;;;;;;18.22;60.96;102050.84;5041867;28;20047;-50
2022/05/26 11:17:52;;;;;;;11.88;3.50;;;;;;;18.31;59.86;102049.91;5053790;28;20415;-47
2022/05/26 11:20:53;;;;;;;12.50;3.20;;;;;;;18.24;58.65;102035.63;5029412;28;20055;-47
2022/05/26 11:23:41;;;;;;;9.50;2.80;;;;;;;18.21;59.38;102043.69;5023800;28;20122;-49
2022/05/26 11:26:40;;;;;;;9.90;3.00;;;;;;;18.20;58.65;102040.06;5048624;28;20503;-52
2022/05/26 11:29:51;;;;;;;7.97;2.45;;;;;;;18.21;60.35;102044.50;5055310;28;20048;-49
2022/05/26 11:36:21;;;;;;;7.80;2.53;;;;;;;18.48;64.04;102026.56;5042517;28;20068;-48
2022/05/26 11:39:18;;;;;;;10.48;3.13;;;;;;;18.55;61.29;102032.56;5055884;28;20045;-49
2022/05/26 11:42:09;;;;;;;11.65;4.00;;;;;;;18.48;59.25;102021.88;5055104;28;20051;-48
2022/05/26 11:45:12;;;;;;;9.75;3.20;;;;;;;18.54;59.90;102019.88;5043763;28;20036;-44
2022/05/26 11:48:03;;;;;;;8.30;3.17;;;;;;;18.61;58.90;102019.53;5035565;28;20095;-44
2022/05/26 11:51:31;;;;;;;11.00;3.50;;;;;;;18.66;58.70;102023.03;5050471;28;20102;-46
2022/05/26 11:54:53;;;;;;;7.00;2.88;;;;;;;18.70;58.83;102021.34;5048881;28;20511;-48
2022/05/26 11:57:43;;;;;;;11.80;3.50;;;;;;;18.69;58.32;102008.69;5035081;28;20052;-50
2022/05/26 12:00:34;;;;;;;9.15;3.38;;;;;;;18.71;58.06;102017.50;5036469;28;20042;-52
2022/05/26 12:03:24;;;;;;;12.82;4.30;;;;;;;18.74;57.85;102019.66;5035233;28;20045;-51
2022/05/26 12:06:14;;;;;;;12.85;4.20;;;;;;;18.72;58.93;102016.38;5037329;28;20124;-53
2022/05/26 12:09:11;;;;;;;10.98;4.25;;;;;;;18.68;58.57;102014.47;5035929;28;20462;-53
2022/05/26 12:12:00;;;;;;;10.25;3.50;;;;;;;18.64;59.30;102008.75;5035021;28;20117;-50
2022/05/26 12:14:47;;;;;;;8.15;2.80;;;;;;;18.65;59.73;102010.38;5048089;28;20045;-48
2022/05/26 12:17:51;;;;;;;10.77;4.80;;;;;;;18.76;60.74;102011.13;5055771;28;20131;-48
2022/05/26 12:20:41;;;;;;;13.15;5.90;;;;;;;18.78;59.52;102002.53;5054630;28;20052;-51
2022/05/26 12:23:29;;;;;;;16.50;7.28;;;;;;;18.85;59.11;102016.78;5055429;28;20060;-48
2022/05/26 12:26:47;;;;;;;12.98;6.55;;;;;;;18.82;59.56;101998.88;5035665;28;20049;-47
2022/05/26 12:30:01;;;;;;;18.75;7.72;;;;;;;18.82;60.20;101992.53;5034530;28;20515;-48
2022/05/26 12:32:53;;;;;;;16.52;7.43;;;;;;;18.80;60.08;101994.78;5035480;28;20057;-48
2022/05/26 12:35:59;;;;;;;14.98;7.63;;;;;;;18.84;60.16;101995.84;5048037;28;20052;-47
2022/05/26 12:39:20;;;;;;;16.35;8.82;;;;;;;18.85;58.83;101991.94;5035362;28;20485;-45
2022/05/26 12:42:09;;;;;;;12.48;6.72;;;;;;;18.89;59.18;101976.44;5014181;28;20504;-48
2022/05/26 12:45:03;;;;;;;15.05;6.78;;;;;;;18.97;59.02;101984.03;5015260;28;20042;-47
2022/05/26 12:47:35;;;;;;;12.60;5.63;;;;;;;19.01;59.20;101982.34;5015616;28;20050;-47
2022/05/26 12:50:18;;;;;;;16.15;7.95;;;;;;;19.03;58.42;101987.59;5015460;28;20038;-49
2022/05/26 12:53:06;;;;;;;13.95;6.22;;;;;;;19.06;58.50;101981.47;5013773;28;20045;-48
2022/05/26 12:55:34;;;;;;;14.60;6.00;;;;;;;19.12;57.61;101974.72;5013779;28;20396;-50
2022/05/26 12:58:24;;;;;;;15.32;6.30;;;;;;;19.13;57.45;101987.44;5015242;28;20049;-53
2022/05/26 13:00:55;;;;;;;12.35;5.70;;;;;;;19.15;57.67;101974.16;5013884;28;20518;-50
2022/05/26 13:03:27;;;;;;;16.67;5.63;;;;;;;19.16;57.65;101979.34;5015814;28;20050;-45
2022/05/26 13:06:07;;;;;;;10.68;4.97;;;;;;;19.20;58.49;101981.53;5014980;28;20045;-51
2022/05/26 13:09:06;;;;;;;12.32;5.43;;;;;;;19.23;57.50;101980.94;5014995;28;20052;-49
2022/05/26 13:11:43;;;;;;;12.50;5.03;;;;;;;19.27;56.57;101976.47;5015058;28;20050;-49
2022/05/26 13:14:28;;;;;;;13.55;5.10;;;;;;;19.31;55.37;101972.81;5022678;28;20046;-49
2022/05/26 13:17:15;;;;;;;10.23;3.70;;;;;;;19.36;55.20;101978.25;5014793;28;20046;-52
2022/05/26 13:19:44;;;;;;;8.15;3.50;;;;;;;19.39;55.58;101971.31;5015056;28;20447;-51
2022/05/26 13:22:18;;;;;;;10.85;4.90;;;;;;;19.40;55.01;101986.75;5013373;28;20038;-50
2022/05/26 13:24:55;;;;;;;11.35;4.60;;;;;;;19.35;55.92;101984.91;5014382;28;20088;-48
2022/05/26 13:27:26;;;;;;;11.30;4.35;;;;;;;19.34;56.35;101974.16;5016878;28;20032;-49
2022/05/26 13:33:07;;;;;;;11.63;4.20;;;;;;;19.35;56.95;101973.03;5013287;28;20048;-50
2022/05/26 13:35:30;;;;;;;9.20;3.45;;;;;;;19.39;57.27;101971.31;5015373;28;20072;-51
2022/05/26 13:37:58;;;;;;;9.70;3.97;;;;;;;19.43;57.24;101966.00;5013291;28;20052;-51
2022/05/26 13:40:28;;;;;;;10.95;4.57;;;;;;;19.42;56.23;101961.59;5012846;28;20038;-50
2022/05/26 13:42:56;;;;;;;12.25;4.00;;;;;;;19.41;56.17;101965.47;5013093;28;20103;-46
2022/05/26 13:45:33;;;;;;;9.15;3.78;;;;;;;19.39;56.61;101957.50;5014731;28;20052;-51